Time;durP1;ratioP1;P1;durP2;ratioP2;P2;SDS_P1;SDS_P2;PMS_P1;PMS_P2;Temp;Humidity;BMP_temperature;BMP_pressure;BME280_temperature;BME280_humidity;BME280_pressure;Samples;Min_cycle;Max_cycle;Signal;HPM_P1;HPM_P2
2022/04/20 00:01:58;;;;;;;7.50;4.53;;;9.00;60.50;;;;;;6198267;23;20238;-85
2022/04/20 00:04:26;;;;;;;5.13;4.60;;;8.90;61.20;;;;;;6194772;23;20199;-85
2022/04/20 00:06:53;;;;;;;11.32;5.00;;;9.00;62.10;;;;;;6192202;23;20411;-85
2022/04/20 00:09:20;;;;;;;5.43;5.13;;;9.00;62.60;;;;;;6192323;23;20186;-85
2022/04/20 00:11:47;;;;;;;4.03;3.72;;;8.90;63.10;;;;;;6192742;23;20179;-85
2022/04/20 00:14:14;;;;;;;5.20;4.70;;;8.80;63.90;;;;;;6192223;23;20209;-85
2022/04/20 00:16:41;;;;;;;5.30;4.80;;;8.80;64.40;;;;;;6192614;23;20179;-85
2022/04/20 00:19:08;;;;;;;4.68;4.28;;;8.80;65.00;;;;;;6192852;23;20184;-85
2022/04/20 00:21:36;;;;;;;6.05;5.55;;;8.80;65.10;;;;;;6192165;23;20184;-84
2022/04/20 00:24:03;;;;;;;5.90;5.60;;;8.70;65.50;;;;;;6192886;23;20202;-85
2022/04/20 00:26:30;;;;;;;5.35;5.03;;;8.70;66.20;;;;;;6192773;23;20188;-85
2022/04/20 00:28:56;;;;;;;5.68;5.18;;;8.60;66.80;;;;;;6192202;23;20174;-86
2022/04/20 00:31:23;;;;;;;5.82;5.43;;;8.60;67.30;;;;;;6190954;23;20188;-85
2022/04/20 00:33:50;;;;;;;5.43;5.03;;;8.60;67.90;;;;;;6191028;23;20202;-85
2022/04/20 00:36:17;;;;;;;5.38;4.93;;;8.50;68.40;;;;;;6190061;23;20623;-85
2022/04/20 00:38:45;;;;;;;6.10;5.70;;;8.50;68.80;;;;;;6190700;23;20270;-85
2022/04/20 00:41:13;;;;;;;5.63;5.13;;;8.50;69.30;;;;;;6189831;23;20186;-83
2022/04/20 00:43:40;;;;;;;5.80;5.30;;;8.40;69.80;;;;;;6190780;23;20205;-84
2022/04/20 00:46:08;;;;;;;5.20;4.70;;;8.40;70.00;;;;;;6191261;23;20655;-84
2022/04/20 00:48:38;;;;;;;5.90;5.50;;;8.40;70.70;;;;;;6191961;23;20184;-84
2022/04/20 00:51:06;;;;;;;6.22;5.72;;;8.40;71.00;;;;;;6191858;23;20357;-85
2022/04/20 00:54:11;;;;;;;5.30;4.90;;;8.30;71.60;;;;;;6191966;23;20257;-84
2022/04/20 00:56:39;;;;;;;6.22;5.50;;;8.30;71.60;;;;;;6189737;23;20652;-84
2022/04/20 00:59:06;;;;;;;5.93;5.32;;;8.30;71.80;;;;;;6191879;23;20210;-84
2022/04/20 01:01:33;;;;;;;6.70;6.13;;;8.30;72.10;;;;;;6191492;23;20190;-84
2022/04/20 01:04:00;;;;;;;6.35;5.85;;;8.30;72.70;;;;;;6191654;23;20202;-84
2022/04/20 01:06:27;;;;;;;6.05;5.50;;;8.20;72.80;;;;;;6192451;23;20213;-84
2022/04/20 01:08:54;;;;;;;6.03;5.53;;;8.20;73.00;;;;;;6192199;23;20185;-84
2022/04/20 01:11:22;;;;;;;6.05;5.55;;;8.20;73.00;;;;;;6190625;23;20189;-85
2022/04/20 01:13:50;;;;;;;5.95;5.45;;;8.10;73.10;;;;;;6191653;23;20206;-84
2022/04/20 01:16:17;;;;;;;7.80;5.68;;;8.10;73.10;;;;;;6191675;23;20185;-85
2022/04/20 01:18:44;;;;;;;5.35;5.00;;;8.10;73.50;;;;;;6191284;23;20213;-84
2022/04/20 01:21:13;;;;;;;6.80;6.10;;;8.10;73.70;;;;;;6191692;23;20182;-84
2022/04/20 01:23:40;;;;;;;6.40;5.78;;;8.00;73.70;;;;;;6191403;23;20226;-84
2022/04/20 01:26:08;;;;;;;6.88;6.18;;;8.00;73.90;;;;;;6191136;23;20174;-85
2022/04/20 01:28:35;;;;;;;6.07;5.68;;;8.00;74.10;;;;;;6192494;23;20561;-85
2022/04/20 01:31:02;;;;;;;6.10;5.60;;;8.00;74.20;;;;;;6191274;23;20261;-84
2022/04/20 01:33:29;;;;;;;5.80;5.40;;;7.90;74.50;;;;;;6192334;23;20209;-84
2022/04/20 01:35:56;;;;;;;6.28;5.78;;;7.80;74.60;;;;;;6191357;23;20681;-86
2022/04/20 01:38:24;;;;;;;5.70;5.30;;;7.80;74.80;;;;;;6191829;23;20668;-85
2022/04/20 01:40:51;;;;;;;6.65;5.45;;;7.80;74.80;;;;;;6191344;23;20278;-84
2022/04/20 01:43:18;;;;;;;5.88;5.28;;;7.70;75.40;;;;;;6192042;23;20209;-85
2022/04/20 01:45:45;;;;;;;6.03;5.53;;;7.70;75.60;;;;;;6191635;23;20186;-85
2022/04/20 01:48:12;;;;;;;6.07;5.68;;;7.70;75.80;;;;;;6191828;23;20257;-83
2022/04/20 01:51:46;;;;;;;7.05;5.10;;;7.70;76.20;;;;;;6192174;23;20190;-85
2022/04/20 01:53:27;;;;;;;6.00;5.50;;;7.70;76.50;;;;;;6191261;23;20657;-85
2022/04/20 01:55:54;;;;;;;5.13;4.82;;;7.60;76.80;;;;;;6192352;23;20198;-84
2022/04/20 01:58:20;;;;;;;5.70;5.10;;;7.60;76.90;;;;;;6192092;23;20206;-84
2022/04/20 02:00:47;;;;;;;5.13;4.82;;;7.60;77.20;;;;;;6191143;23;20532;-84
2022/04/20 02:03:13;;;;;;;4.93;4.63;;;7.60;77.60;;;;;;6191780;23;20206;-85
2022/04/20 02:05:40;;;;;;;6.20;5.70;;;7.50;78.10;;;;;;6191698;23;20236;-84
2022/04/20 02:08:07;;;;;;;5.82;5.43;;;7.50;78.10;;;;;;6191385;23;20420;-84
2022/04/20 02:10:35;;;;;;;5.78;5.28;;;7.50;78.50;;;;;;6191267;23;20189;-84
2022/04/20 02:13:02;;;;;;;6.57;5.97;;;7.50;78.70;;;;;;6191149;23;20199;-84
2022/04/20 02:15:29;;;;;;;5.72;5.18;;;7.50;78.80;;;;;;6191671;23;20222;-84
2022/04/20 02:17:56;;;;;;;7.00;6.18;;;7.50;78.90;;;;;;6192083;23;20183;-85
2022/04/20 02:20:23;;;;;;;5.70;5.30;;;7.50;79.20;;;;;;6191673;23;20182;-84
2022/04/20 02:22:50;;;;;;;6.35;5.85;;;7.40;79.30;;;;;;6191655;23;20519;-85
2022/04/20 02:25:17;;;;;;;5.53;5.13;;;7.50;79.50;;;;;;6191719;23;20185;-85
2022/04/20 02:27:45;;;;;;;5.60;5.10;;;7.40;79.60;;;;;;6191460;23;20187;-84
2022/04/20 02:30:13;;;;;;;5.80;5.35;;;7.40;79.70;;;;;;6191582;23;20178;-85
2022/04/20 02:32:39;;;;;;;6.15;5.65;;;7.40;80.00;;;;;;6191507;23;20205;-85
2022/04/20 02:35:07;;;;;;;6.00;5.45;;;7.40;80.30;;;;;;6190771;23;20195;-84
2022/04/20 02:37:35;;;;;;;6.60;5.90;;;7.30;80.30;;;;;;6191420;23;20184;-84
2022/04/20 02:40:02;;;;;;;4.90;4.60;;;7.30;80.50;;;;;;6191427;23;20233;-85
2022/04/20 02:42:29;;;;;;;5.82;5.38;;;7.30;80.30;;;;;;6190694;23;20695;-85
2022/04/20 02:44:57;;;;;;;6.28;5.78;;;7.30;80.30;;;;;;6191422;23;20234;-85
2022/04/20 02:47:24;;;;;;;5.32;4.90;;;7.30;80.80;;;;;;6195330;23;20178;-85
2022/04/20 02:49:51;;;;;;;7.50;5.28;;;7.20;80.70;;;;;;6195842;23;20190;-84
2022/04/20 02:52:17;;;;;;;6.68;6.07;;;7.20;81.00;;;;;;6192429;23;20661;-84
2022/04/20 02:54:45;;;;;;;6.25;5.82;;;7.10;81.50;;;;;;6192460;23;20204;-84
2022/04/20 02:57:12;;;;;;;7.65;5.70;;;7.10;81.50;;;;;;6192524;23;20174;-84
2022/04/20 02:59:39;;;;;;;6.07;5.57;;;7.10;81.70;;;;;;6194171;23;20180;-84
2022/04/20 03:02:07;;;;;;;5.10;4.80;;;7.10;81.70;;;;;;6194849;23;20189;-84
2022/04/20 03:04:34;;;;;;;7.13;6.18;;;7.10;82.20;;;;;;6194266;23;20183;-83
2022/04/20 03:07:00;;;;;;;4.82;4.43;;;6.90;81.90;;;;;;6195196;23;20205;-84
2022/04/20 03:09:27;;;;;;;5.20;4.80;;;6.90;82.20;;;;;;6194986;23;20565;-84
2022/04/20 03:11:54;;;;;;;5.95;5.35;;;6.90;82.40;;;;;;6194606;23;20185;-84
2022/04/20 03:14:23;;;;;;;5.93;4.95;;;6.90;82.50;;;;;;6198301;22;20214;-83
2022/04/20 03:16:55;;;;;;;4.75;4.40;;;6.90;82.80;;;;;;6189186;23;20233;-84
2022/04/20 03:19:30;;;;;;;4.97;4.68;;;6.80;82.60;;;;;;6188223;23;20206;-83
2022/04/20 03:22:02;;;;;;;4.60;4.40;;;6.80;82.60;;;;;;6188808;23;20173;-83
2022/04/20 03:24:32;;;;;;;4.97;4.57;;;6.80;82.60;;;;;;6189192;23;20214;-83
2022/04/20 03:27:02;;;;;;;5.00;4.60;;;6.80;82.60;;;;;;6189754;23;20656;-84
2022/04/20 03:29:30;;;;;;;5.07;4.72;;;6.80;82.30;;;;;;6188367;23;20198;-83
2022/04/20 03:31:58;;;;;;;5.88;5.47;;;6.70;82.20;;;;;;6189116;23;20261;-83
2022/04/20 03:34:26;;;;;;;5.20;4.80;;;6.70;82.20;;;;;;6189192;23;20198;-83
2022/04/20 03:36:53;;;;;;;5.20;4.80;;;6.60;82.40;;;;;;6189304;23;20242;-83
2022/04/20 03:39:19;;;;;;;5.32;4.90;;;6.50;82.60;;;;;;6189705;23;20171;-84
2022/04/20 03:41:46;;;;;;;5.15;4.75;;;6.50;83.10;;;;;;6188620;23;20190;-83
2022/04/20 03:44:13;;;;;;;5.28;4.93;;;6.50;82.80;;;;;;6188988;23;20191;-83
2022/04/20 03:46:40;;;;;;;4.50;4.20;;;6.50;82.80;;;;;;6188702;23;20479;-83
2022/04/20 03:49:07;;;;;;;5.88;5.38;;;6.40;82.60;;;;;;6188996;23;20246;-83
2022/04/20 03:51:36;;;;;;;5.30;4.82;;;6.40;82.30;;;;;;6188682;23;20261;-84
2022/04/20 03:54:03;;;;;;;4.90;4.10;;;6.40;81.90;;;;;;6189403;23;20535;-84
2022/04/20 03:57:03;;;;;;;5.13;4.70;;;6.40;81.90;;;;;;6188727;23;20280;-83
2022/04/20 03:59:17;;;;;;;4.63;4.32;;;6.40;82.10;;;;;;6188664;23;20594;-83
2022/04/20 04:01:44;;;;;;;5.18;4.88;;;6.40;82.40;;;;;;6188261;23;20185;-83
2022/04/20 04:04:11;;;;;;;5.03;4.63;;;6.30;82.40;;;;;;6188992;23;20203;-83
2022/04/20 04:06:39;;;;;;;5.10;4.78;;;6.20;83.10;;;;;;6188287;23;20634;-83
2022/04/20 04:09:08;;;;;;;4.65;4.25;;;6.20;83.30;;;;;;6189631;23;20516;-84
2022/04/20 04:11:34;;;;;;;4.57;4.03;;;6.20;82.80;;;;;;6188022;23;20174;-83
2022/04/20 04:14:01;;;;;;;4.63;4.30;;;6.10;83.00;;;;;;6195194;23;20281;-82
2022/04/20 04:16:28;;;;;;;5.38;4.97;;;6.10;83.90;;;;;;6219327;23;20252;-83
2022/04/20 04:18:55;;;;;;;6.07;5.57;;;6.10;84.40;;;;;;6219361;23;20256;-83
2022/04/20 04:21:22;;;;;;;5.25;4.85;;;6.00;85.50;;;;;;6218803;23;20240;-83
2022/04/20 04:23:50;;;;;;;5.90;5.50;;;5.90;86.70;;;;;;6218979;23;20198;-84
2022/04/20 04:26:17;;;;;;;4.65;4.35;;;5.90;87.10;;;;;;6219126;23;20182;-84
2022/04/20 04:28:44;;;;;;;5.00;4.60;;;5.90;87.20;;;;;;6218607;23;20182;-84
2022/04/20 04:31:10;;;;;;;5.35;4.90;;;5.90;87.30;;;;;;6218425;23;20177;-83
2022/04/20 04:33:40;;;;;;;7.63;5.88;;;6.00;87.40;;;;;;6218811;23;20202;-84
2022/04/20 04:36:09;;;;;;;5.53;5.10;;;5.90;87.40;;;;;;6218357;23;20197;-83
2022/04/20 04:38:36;;;;;;;6.63;5.32;;;5.90;87.80;;;;;;6219009;23;20232;-84
2022/04/20 04:41:07;;;;;;;6.00;5.43;;;5.90;88.20;;;;;;6218204;23;20174;-83
2022/04/20 04:43:35;;;;;;;5.43;5.03;;;5.90;88.80;;;;;;6218743;23;20535;-83
2022/04/20 04:48:48;;;;;;;5.78;5.32;;;5.70;90.00;;;;;;6218741;23;20161;-84
2022/04/20 04:51:23;;;;;;;4.80;4.45;;;5.80;90.10;;;;;;6218658;23;20704;-84
2022/04/20 04:53:55;;;;;;;5.65;5.15;;;5.80;90.00;;;;;;6221188;23;20193;-84
2022/04/20 04:56:23;;;;;;;5.63;5.13;;;5.80;90.20;;;;;;6234122;23;20177;-84
2022/04/20 04:58:55;;;;;;;6.38;5.85;;;5.70;91.20;;;;;;6234124;23;20196;-84
2022/04/20 05:01:26;;;;;;;5.63;5.10;;;5.70;91.30;;;;;;6219433;23;20158;-83
2022/04/20 05:03:53;;;;;;;5.82;5.43;;;5.80;91.20;;;;;;6219050;23;20198;-84
2022/04/20 05:06:20;;;;;;;5.05;4.75;;;5.80;91.20;;;;;;6218519;23;20178;-84
2022/04/20 05:08:54;;;;;;;4.43;4.13;;;5.80;91.10;;;;;;6219045;23;20178;-84
2022/04/20 05:11:23;;;;;;;5.20;4.82;;;5.70;90.90;;;;;;6218933;23;20168;-84
2022/04/20 05:13:50;;;;;;;5.25;4.88;;;5.70;90.90;;;;;;6218764;23;20584;-84
2022/04/20 05:16:17;;;;;;;5.10;4.70;;;5.70;90.80;;;;;;6218957;23;20210;-83
2022/04/20 05:18:44;;;;;;;5.25;4.78;;;5.80;90.60;;;;;;6218793;23;20261;-83
2022/04/20 05:21:13;;;;;;;5.18;4.70;;;5.80;90.40;;;;;;6219179;23;20170;-83
2022/04/20 05:23:40;;;;;;;5.55;5.05;;;5.80;90.60;;;;;;6219434;23;20198;-83
2022/04/20 05:26:07;;;;;;;6.20;5.15;;;5.90;90.40;;;;;;6219445;23;20185;-83
2022/04/20 05:28:35;;;;;;;5.78;5.35;;;5.90;90.50;;;;;;6219224;23;20174;-84
2022/04/20 05:31:04;;;;;;;4.90;3.80;;;6.00;90.50;;;;;;6218685;23;20178;-83
2022/04/20 05:33:39;;;;;;;5.22;4.80;;;6.10;90.00;;;;;;6219348;23;20696;-84
2022/04/20 05:36:06;;;;;;;6.15;5.65;;;6.10;88.70;;;;;;6219672;23;20189;-84
2022/04/20 05:44:06;;;;;;;4.90;4.38;;;6.50;88.00;;;;;;6218338;23;20197;-84
2022/04/20 05:46:33;;;;;;;3.95;3.65;;;6.60;87.20;;;;;;6218987;23;20510;-84
2022/04/20 05:49:01;;;;;;;4.13;3.83;;;6.50;86.00;;;;;;6218908;23;20264;-84
2022/04/20 05:51:28;;;;;;;4.93;4.53;;;6.60;85.80;;;;;;6220996;23;20237;-83
2022/04/20 05:53:55;;;;;;;4.40;4.10;;;6.70;87.50;;;;;;6220974;23;20209;-84
2022/04/20 05:56:21;;;;;;;5.25;4.75;;;6.80;88.30;;;;;;6218714;23;20191;-84
2022/04/20 05:58:50;;;;;;;4.72;4.43;;;6.80;86.70;;;;;;6218981;23;20178;-84
2022/04/20 06:01:19;;;;;;;4.30;4.00;;;6.90;86.00;;;;;;6218232;23;20186;-84
2022/04/20 06:03:46;;;;;;;5.72;5.22;;;7.10;87.30;;;;;;6218913;23;20208;-83
2022/04/20 06:06:16;;;;;;;5.35;4.95;;;7.10;85.80;;;;;;6219346;23;20239;-84
2022/04/20 06:12:14;;;;;;;4.68;4.38;;;7.20;83.30;;;;;;6035802;23;20181;-85
2022/04/20 06:14:41;;;;;;;6.53;4.88;;;7.40;82.50;;;;;;6105055;23;20595;-81
2022/04/20 06:17:09;;;;;;;8.75;5.28;;;7.50;82.00;;;;;;6218554;23;20229;-81
2022/04/20 06:19:35;;;;;;;5.07;4.68;;;7.60;81.90;;;;;;6217856;23;20179;-81
2022/04/20 06:22:02;;;;;;;4.47;4.20;;;7.70;81.40;;;;;;6217258;23;20178;-81
2022/04/20 06:24:29;;;;;;;8.45;5.22;;;7.70;80.60;;;;;;6216778;23;20199;-81
2022/04/20 06:26:56;;;;;;;4.82;4.40;;;7.70;80.10;;;;;;6217249;23;20174;-81
2022/04/20 06:29:24;;;;;;;4.88;4.57;;;7.70;79.60;;;;;;6218824;23;20239;-82
2022/04/20 06:31:56;;;;;;;4.35;4.03;;;7.70;79.80;;;;;;6219159;23;20192;-82
2022/04/20 06:34:27;;;;;;;5.18;4.57;;;7.80;79.60;;;;;;6219467;23;20220;-82
2022/04/20 06:36:56;;;;;;;5.53;4.93;;;7.90;79.10;;;;;;6221799;23;20193;-82
2022/04/20 06:39:22;;;;;;;4.95;4.65;;;7.90;78.80;;;;;;6222514;23;20183;-82
2022/04/20 06:41:51;;;;;;;4.88;4.53;;;8.00;78.80;;;;;;6221863;23;20185;-82
2022/04/20 06:44:18;;;;;;;5.25;4.05;;;7.90;79.00;;;;;;6219637;23;20731;-81
2022/04/20 06:46:47;;;;;;;5.13;4.63;;;8.00;79.30;;;;;;6221045;23;20171;-82
2022/04/20 06:49:15;;;;;;;4.68;4.28;;;8.00;78.60;;;;;;6220097;23;20181;-82
2022/04/20 07:00:17;;;;;;;5.00;4.60;;;8.10;79.30;;;;;;6155030;23;20204;-82
2022/04/20 07:02:46;;;;;;;4.55;4.22;;;8.20;79.20;;;;;;6221553;23;20207;-82
2022/04/20 07:05:13;;;;;;;4.72;4.32;;;8.30;79.10;;;;;;6221595;23;20199;-82
2022/04/20 07:07:43;;;;;;;4.93;4.53;;;8.30;79.10;;;;;;6226870;23;20180;-82
2022/04/20 07:12:52;;;;;;;5.20;4.70;;;8.40;79.40;;;;;;6222458;23;20662;-82
2022/04/20 07:15:18;;;;;;;6.28;4.65;;;8.30;79.10;;;;;;6222861;23;20552;-81
2022/04/20 07:17:45;;;;;;;5.45;5.15;;;8.40;79.40;;;;;;6222371;23;20198;-80
2022/04/20 07:20:17;;;;;;;5.68;5.22;;;8.60;79.50;;;;;;6221372;23;20286;-80
2022/04/20 07:22:47;;;;;;;6.15;5.63;;;8.60;79.20;;;;;;6222059;23;20189;-82
2022/04/20 07:25:16;;;;;;;5.28;4.82;;;8.70;79.30;;;;;;6221742;23;20206;-81
2022/04/20 07:27:47;;;;;;;5.32;4.82;;;8.70;79.10;;;;;;6221674;23;20178;-81
2022/04/20 07:30:14;;;;;;;5.30;4.80;;;8.80;78.40;;;;;;6214244;23;20169;-80
2022/04/20 07:32:41;;;;;;;5.13;4.63;;;8.80;78.10;;;;;;6221666;23;20190;-81
2022/04/20 07:35:08;;;;;;;5.05;4.65;;;8.90;78.10;;;;;;6220818;23;20200;-81
2022/04/20 07:37:35;;;;;;;5.30;4.90;;;9.00;77.40;;;;;;6222695;23;20261;-81
2022/04/20 07:40:04;;;;;;;5.82;5.32;;;9.10;77.20;;;;;;6221023;23;20361;-81
2022/04/20 07:42:30;;;;;;;5.72;5.18;;;9.20;77.80;;;;;;6218858;23;20179;-80
2022/04/20 07:44:58;;;;;;;5.37;4.90;;;9.20;76.90;;;;;;6218621;23;20213;-79
2022/04/20 07:47:25;;;;;;;4.80;4.40;;;9.30;77.20;;;;;;6219234;23;20463;-80
2022/04/20 07:52:38;;;;;;;5.30;4.80;;;9.30;75.10;;;;;;6220491;23;20162;-80
2022/04/20 07:55:10;;;;;;;6.63;6.13;;;9.40;74.80;;;;;;6222971;23;20464;-80
2022/04/20 07:57:37;;;;;;;4.20;3.90;;;9.50;75.60;;;;;;6220801;23;20434;-79
2022/04/20 08:00:05;;;;;;;6.85;6.25;;;9.50;75.10;;;;;;6223933;23;20406;-79
2022/04/20 08:02:32;;;;;;;5.53;5.00;;;9.50;74.20;;;;;;6224259;23;20178;-80
2022/04/20 08:04:59;;;;;;;4.75;4.28;;;9.50;73.70;;;;;;6221464;23;20210;-80
2022/04/20 08:07:27;;;;;;;5.57;4.80;;;9.60;72.50;;;;;;6220124;23;20175;-80
2022/04/20 08:09:56;;;;;;;10.43;4.73;;;9.70;72.10;;;;;;6221059;23;20183;-80
2022/04/20 08:12:28;;;;;;;5.43;5.00;;;9.70;72.30;;;;;;6230590;23;20894;-80
2022/04/20 08:14:54;;;;;;;8.23;5.37;;;9.80;72.40;;;;;;6233032;23;20500;-80
2022/04/20 08:17:21;;;;;;;5.47;5.07;;;9.90;71.40;;;;;;6221017;23;20451;-80
2022/04/20 08:19:48;;;;;;;5.10;4.70;;;9.90;71.40;;;;;;6220639;23;20580;-83
2022/04/20 08:25:20;;;;;;;6.00;5.40;;;10.10;70.60;;;;;;6218973;23;20427;-80
2022/04/20 08:27:48;;;;;;;5.30;4.90;;;10.20;70.20;;;;;;6220288;23;20400;-79
2022/04/20 08:30:18;;;;;;;4.90;4.40;;;10.30;69.40;;;;;;6218717;23;20408;-80
2022/04/20 08:35:43;;;;;;;5.17;4.77;;;10.40;68.90;;;;;;6214283;23;20394;-78
2022/04/20 08:38:09;;;;;;;5.00;4.60;;;10.50;69.70;;;;;;6217842;23;20442;-78
2022/04/20 08:40:39;;;;;;;4.70;4.30;;;10.50;68.50;;;;;;6218041;23;20419;-79
2022/04/20 08:43:09;;;;;;;4.30;4.00;;;10.70;68.60;;;;;;6220703;23;20493;-80
2022/04/20 08:45:37;;;;;;;4.97;4.60;;;10.70;67.60;;;;;;6221290;23;20454;-79
2022/04/20 08:48:07;;;;;;;4.87;4.47;;;10.60;66.40;;;;;;6222296;23;20411;-79
2022/04/20 08:50:34;;;;;;;4.73;4.23;;;10.70;68.50;;;;;;6220955;23;20411;-80
2022/04/20 08:53:02;;;;;;;6.90;4.83;;;10.80;68.70;;;;;;6221446;23;20431;-81
2022/04/20 08:55:29;;;;;;;7.27;5.13;;;10.90;69.30;;;;;;6220836;23;20443;-80
2022/04/20 08:57:56;;;;;;;4.80;4.50;;;10.90;66.80;;;;;;6221271;23;20452;-80
2022/04/20 09:00:27;;;;;;;5.47;4.90;;;11.00;66.00;;;;;;6220927;23;21073;-81
2022/04/20 09:02:55;;;;;;;4.60;4.30;;;11.00;68.30;;;;;;6220862;23;20459;-80
2022/04/20 09:05:23;;;;;;;5.70;5.20;;;11.20;66.50;;;;;;6219849;23;20494;-81
2022/04/20 09:07:50;;;;;;;4.93;4.40;;;11.20;66.40;;;;;;6220400;23;20419;-80
2022/04/20 09:10:18;;;;;;;5.13;4.60;;;11.40;65.90;;;;;;6219762;23;20479;-81
2022/04/20 09:12:46;;;;;;;4.83;4.47;;;11.50;65.00;;;;;;6221981;23;20457;-81
2022/04/20 09:15:32;;;;;;;4.37;4.07;;;11.70;65.30;;;;;;6222539;23;20530;-81
2022/04/20 09:18:01;;;;;;;12.07;6.77;;;11.70;65.80;;;;;;6220834;23;20447;-81
2022/04/20 09:20:31;;;;;;;4.57;4.23;;;11.80;65.60;;;;;;6215604;23;20443;-81
2022/04/20 09:23:03;;;;;;;5.30;4.80;;;12.00;64.60;;;;;;6220809;23;20778;-81
2022/04/20 09:25:32;;;;;;;4.40;4.10;;;12.10;63.50;;;;;;6221500;23;20448;-81
2022/04/20 09:27:59;;;;;;;4.20;3.87;;;12.00;61.60;;;;;;6221629;23;20436;-81
2022/04/20 09:30:26;;;;;;;4.97;4.60;;;12.20;63.90;;;;;;6220675;23;20412;-80
2022/04/20 09:32:56;;;;;;;6.83;5.00;;;12.20;64.30;;;;;;6222955;23;20424;-83
2022/04/20 09:35:25;;;;;;;4.40;4.10;;;12.30;63.10;;;;;;6220849;23;20508;-81
2022/04/20 09:38:08;;;;;;;4.00;3.80;;;12.40;61.20;;;;;;6222769;23;20784;-81
2022/04/20 09:40:37;;;;;;;3.40;3.20;;;12.60;61.70;;;;;;6220995;23;20423;-81
2022/04/20 09:43:06;;;;;;;4.50;4.10;;;12.60;60.30;;;;;;6222955;23;20409;-81
2022/04/20 09:45:33;;;;;;;4.30;4.00;;;12.70;60.80;;;;;;6223807;23;20439;-81
2022/04/20 09:51:12;;;;;;;4.10;3.80;;;12.70;59.90;;;;;;6227235;23;20381;-82
2022/04/20 09:53:41;;;;;;;3.77;3.47;;;12.90;60.10;;;;;;6225458;23;20436;-82
2022/04/20 09:56:18;;;;;;;4.43;4.03;;;13.00;58.20;;;;;;6223568;23;20405;-81
2022/04/20 09:58:46;;;;;;;4.03;3.63;;;13.00;58.40;;;;;;6222717;23;20459;-81
2022/04/20 10:01:27;;;;;;;3.07;2.90;;;13.20;58.40;;;;;;6225785;23;20832;-81
2022/04/20 10:03:59;;;;;;;4.33;4.03;;;13.40;56.60;;;;;;6224781;23;20510;-81
2022/04/20 10:06:29;;;;;;;4.37;4.00;;;13.50;57.80;;;;;;6224366;23;20440;-82
2022/04/20 10:11:43;;;;;;;3.80;3.50;;;13.70;57.10;;;;;;6220729;23;20447;-82
2022/04/20 10:17:01;;;;;;;3.53;3.23;;;13.70;55.80;;;;;;6225952;23;20431;-81
2022/04/20 10:19:29;;;;;;;3.33;3.03;;;13.80;56.10;;;;;;6220929;23;20393;-79
2022/04/20 10:21:58;;;;;;;3.80;3.50;;;14.10;57.30;;;;;;6222710;23;20414;-79
2022/04/20 10:24:30;;;;;;;3.63;3.43;;;14.30;57.10;;;;;;6219428;23;20430;-80
2022/04/20 10:27:02;;;;;;;5.10;4.00;;;14.30;53.70;;;;;;6220679;23;20385;-80
2022/04/20 10:29:37;;;;;;;6.70;4.37;;;14.00;52.30;;;;;;6219953;23;20388;-80
2022/04/20 10:32:09;;;;;;;4.00;3.70;;;14.20;54.80;;;;;;6220108;23;20479;-81
2022/04/20 10:34:39;;;;;;;4.40;4.00;;;14.40;55.00;;;;;;6219594;23;20754;-81
2022/04/20 10:37:07;;;;;;;4.70;3.80;;;14.60;54.30;;;;;;6219944;23;20782;-80
2022/04/20 10:39:37;;;;;;;4.07;3.70;;;14.80;55.40;;;;;;6219985;23;20809;-81
2022/04/20 10:42:22;;;;;;;4.57;4.03;;;15.00;54.00;;;;;;6219497;23;20420;-80
2022/04/20 10:44:51;;;;;;;4.07;3.80;;;15.10;54.10;;;;;;6218418;23;20800;-80
2022/04/20 10:47:20;;;;;;;4.77;4.37;;;14.90;49.50;;;;;;6221249;23;20409;-80
2022/04/20 10:49:50;;;;;;;4.83;4.50;;;15.10;53.00;;;;;;6220342;23;20409;-81
2022/04/20 10:52:24;;;;;;;3.70;3.40;;;15.40;53.70;;;;;;6222491;23;20397;-80
2022/04/20 10:54:51;;;;;;;4.10;3.80;;;15.80;54.30;;;;;;6219812;23;20811;-80
2022/04/20 10:57:18;;;;;;;3.83;3.53;;;16.00;50.50;;;;;;6219068;23;20495;-80
2022/04/20 11:00:24;;;;;;;4.43;3.33;;;15.70;49.30;;;;;;6219302;23;20410;-80
2022/04/20 11:02:51;;;;;;;3.90;3.70;;;16.20;51.40;;;;;;6219465;23;20398;-79
2022/04/20 11:05:22;;;;;;;4.17;3.87;;;16.60;50.00;;;;;;6218688;23;20462;-80
2022/04/20 11:08:02;;;;;;;5.63;4.10;;;17.10;49.80;;;;;;6218737;23;20396;-80
2022/04/20 11:10:30;;;;;;;4.30;3.80;;;17.70;48.30;;;;;;6218396;23;20413;-80
2022/04/20 11:19:05;;;;;;;3.90;3.70;;;19.60;45.60;;;;;;6218371;23;20488;-80
2022/04/20 12:23:46;;;;;;;5.30;4.77;;;24.80;31.70;;;;;;6054566;23;20565;-83
2022/04/20 13:04:28;;;;;;;4.70;4.30;;;26.30;28.80;;;;;;5955717;24;20505;-84
2022/04/20 13:06:58;;;;;;;4.20;3.90;;;26.50;29.00;;;;;;5979874;23;20482;-81
2022/04/20 13:09:26;;;;;;;3.90;3.60;;;27.10;29.10;;;;;;6116584;23;20763;-82
2022/04/20 13:11:54;;;;;;;3.60;3.37;;;27.10;28.30;;;;;;6161461;23;20727;-81
2022/04/20 13:14:28;;;;;;;3.73;3.53;;;26.60;28.50;;;;;;6161821;23;20495;-82
2022/04/20 13:16:57;;;;;;;3.80;3.50;;;26.90;29.60;;;;;;6161127;23;20914;-82
2022/04/20 13:19:27;;;;;;;5.10;4.60;;;26.50;28.30;;;;;;6161348;23;20483;-82
2022/04/20 13:22:15;;;;;;;3.70;3.47;;;26.30;27.30;;;;;;6160813;23;20483;-82
2022/04/20 13:30:16;;;;;;;3.90;3.50;;;26.10;28.70;;;;;;6161007;23;20405;-82
2022/04/20 13:32:55;;;;;;;4.47;3.50;;;26.80;27.80;;;;;;6160134;23;20390;-81
2022/04/20 13:35:28;;;;;;;3.33;3.13;;;27.30;27.40;;;;;;6156723;23;20490;-83
2022/04/20 13:38:01;;;;;;;3.73;3.53;;;28.10;26.80;;;;;;6160714;23;20448;-82
2022/04/20 13:40:38;;;;;;;3.73;3.43;;;27.10;24.90;;;;;;6161487;23;20419;-82
2022/04/20 13:43:07;;;;;;;3.17;2.97;;;27.70;26.60;;;;;;6160022;23;20429;-82
2022/04/20 13:45:34;;;;;;;4.37;3.97;;;28.40;26.90;;;;;;6161301;23;20443;-82
2022/04/20 13:48:03;;;;;;;3.80;3.50;;;28.80;25.90;;;;;;6161007;23;20445;-82
2022/04/20 13:50:39;;;;;;;2.97;2.87;;;28.70;25.50;;;;;;6160455;23;20980;-82
2022/04/20 13:53:11;;;;;;;5.80;5.50;;;29.00;25.00;;;;;;6159856;23;20424;-82
2022/04/20 13:55:47;;;;;;;3.20;3.00;;;28.10;23.90;;;;;;6158049;23;20940;-82
2022/04/20 14:00:57;;;;;;;3.57;3.37;;;27.50;25.30;;;;;;6174443;23;20418;-81
2022/04/20 14:03:26;;;;;;;3.63;3.30;;;27.30;25.20;;;;;;6188181;23;20406;-82
2022/04/20 14:05:54;;;;;;;3.70;3.40;;;27.30;25.70;;;;;;6187132;23;20474;-82
2022/04/20 14:08:21;;;;;;;3.30;3.10;;;27.90;26.20;;;;;;6187526;23;20907;-81
2022/04/20 14:10:47;;;;;;;3.13;2.90;;;28.30;24.80;;;;;;6187856;23;20736;-82
2022/04/20 14:13:14;;;;;;;5.07;3.27;;;28.40;24.60;;;;;;6188902;23;20412;-82
2022/04/20 14:15:41;;;;;;;3.17;2.97;;;28.50;24.40;;;;;;6192689;23;20423;-82
2022/04/20 14:18:08;;;;;;;3.67;3.40;;;28.60;24.60;;;;;;6190282;23;20413;-82
2022/04/20 14:20:35;;;;;;;3.27;3.07;;;28.80;24.40;;;;;;6189389;23;20413;-82
2022/04/20 14:23:03;;;;;;;3.37;3.17;;;29.30;24.60;;;;;;6188712;23;20416;-82
2022/04/20 14:33:44;;;;;;;3.60;3.40;;;27.90;24.30;;;;;;6191314;23;20443;-83
2022/04/20 14:36:11;;;;;;;3.90;3.60;;;28.00;24.70;;;;;;6192479;23;20420;-83
2022/04/20 14:38:39;;;;;;;3.77;3.47;;;28.30;24.80;;;;;;6193146;23;20768;-83
2022/04/20 14:41:06;;;;;;;3.10;2.90;;;27.70;23.60;;;;;;6191982;23;20412;-83
2022/04/20 14:43:32;;;;;;;3.60;3.30;;;28.10;24.10;;;;;;6191792;23;20435;-83
2022/04/20 14:45:59;;;;;;;3.60;3.30;;;27.50;24.30;;;;;;6191524;23;20415;-83
2022/04/20 14:48:26;;;;;;;3.60;2.93;;;28.00;24.70;;;;;;6192072;23;20502;-83
2022/04/20 14:50:53;;;;;;;4.10;3.80;;;28.60;24.70;;;;;;6193534;23;20472;-83
2022/04/20 14:53:20;;;;;;;4.10;3.37;;;29.40;23.90;;;;;;6193447;23;20419;-83
2022/04/20 14:55:49;;;;;;;3.50;3.27;;;30.00;23.20;;;;;;6193821;23;20414;-83
2022/04/20 14:58:16;;;;;;;4.07;3.77;;;30.00;23.00;;;;;;6192826;23;20498;-83
2022/04/20 15:00:43;;;;;;;3.83;3.53;;;30.30;23.00;;;;;;6193307;23;20419;-83
2022/04/20 15:03:10;;;;;;;3.43;3.13;;;30.80;22.90;;;;;;6194553;23;20419;-83
2022/04/20 15:05:37;;;;;;;3.43;3.10;;;31.00;22.70;;;;;;6213085;23;20501;-83
2022/04/20 15:08:12;;;;;;;3.27;2.83;;;31.00;22.50;;;;;;6209405;23;20495;-84
2022/04/20 15:10:50;;;;;;;3.97;3.67;;;31.50;22.90;;;;;;6194257;23;20419;-84
2022/04/20 15:13:31;;;;;;;3.73;3.43;;;30.30;22.00;;;;;;6195082;23;20435;-83
2022/04/20 15:16:15;;;;;;;4.27;3.87;;;29.40;23.00;;;;;;6198375;23;20402;-83
2022/04/20 15:18:53;;;;;;;3.23;3.03;;;28.80;22.70;;;;;;6196618;23;20905;-82
2022/04/20 15:24:12;;;;;;;4.13;3.43;;;28.50;22.90;;;;;;6195905;23;20434;-82
2022/04/20 15:27:41;;;;;;;3.33;3.13;;;29.10;23.10;;;;;;6199059;23;20374;-82
2022/04/20 15:30:41;;;;;;;3.20;3.00;;;29.10;22.30;;;;;;6172574;23;20416;-82
2022/04/20 15:33:24;;;;;;;3.83;3.57;;;29.10;23.30;;;;;;6198272;23;20429;-82
2022/04/20 15:36:07;;;;;;;3.67;3.37;;;29.30;23.10;;;;;;6199706;23;20386;-82
2022/04/20 15:44:14;;;;;;;3.03;2.83;;;28.70;23.40;;;;;;6192786;23;20452;-84
2022/04/20 15:46:41;;;;;;;4.60;4.20;;;28.30;24.20;;;;;;6198662;23;20390;-83
2022/04/20 15:49:07;;;;;;;3.70;3.40;;;28.10;24.10;;;;;;6197735;23;20446;-82
2022/04/20 15:51:34;;;;;;;3.83;3.40;;;27.50;24.00;;;;;;6189211;23;20480;-80
2022/04/20 15:54:01;;;;;;;4.80;3.80;;;27.40;24.30;;;;;;6186719;23;20432;-81
2022/04/20 16:02:11;;;;;;;3.50;3.30;;;27.00;25.10;;;;;;6189721;23;20422;-81